createdAt,value
2017-08-08T00:00:21.540Z,18.0
2017-08-08T00:01:22.308Z,18.0
2017-08-08T00:02:23.804Z,18.0
2017-08-08T00:03:24.590Z,18.0
2017-08-08T00:04:25.697Z,17.9
2017-08-08T00:05:26.577Z,17.9
2017-08-08T00:06:27.509Z,17.9
2017-08-08T00:07:28.352Z,17.9
2017-08-08T00:08:29.452Z,17.8
2017-08-08T00:09:30.283Z,17.9
2017-08-08T00:10:31.041Z,17.8
2017-08-08T00:11:31.830Z,17.8
2017-08-08T00:12:32.589Z,18.0
2017-08-08T00:13:33.528Z,18.1
2017-08-08T00:14:34.413Z,18.0
2017-08-08T00:15:35.236Z,18.0
2017-08-08T00:16:36.064Z,17.9
2017-08-08T00:17:36.835Z,18.0
2017-08-08T00:18:37.669Z,18.1
2017-08-08T00:19:38.395Z,18.0
2017-08-08T00:20:39.231Z,18.0
2017-08-08T00:21:40.061Z,18.0
2017-08-08T00:22:40.788Z,18.0
2017-08-08T00:23:41.972Z,18.0
2017-08-08T00:24:42.818Z,17.8
2017-08-08T00:25:43.861Z,17.8
2017-08-08T00:26:44.807Z,17.9
2017-08-08T00:27:45.883Z,17.8
2017-08-08T00:28:46.623Z,17.8
2017-08-08T00:29:47.511Z,17.8
2017-08-08T00:30:48.220Z,17.7
2017-08-08T00:31:49.118Z,17.6
2017-08-08T00:32:49.897Z,17.7
2017-08-08T00:33:50.637Z,17.6
2017-08-08T00:34:51.615Z,17.7
2017-08-08T00:35:52.451Z,17.8
2017-08-08T00:36:53.331Z,17.8
2017-08-08T00:37:54.157Z,17.7
2017-08-08T00:38:54.938Z,17.6
2017-08-08T00:39:55.911Z,17.5
2017-08-08T00:40:56.678Z,17.6
2017-08-08T00:41:57.414Z,17.5
2017-08-08T00:42:58.282Z,17.5
2017-08-08T00:43:59.009Z,17.6
2017-08-08T00:44:59.770Z,17.5
2017-08-08T00:46:00.567Z,17.5
2017-08-08T00:47:01.328Z,17.5
2017-08-08T00:48:02.242Z,17.4
2017-08-08T00:49:03.267Z,17.4
2017-08-08T00:50:04.122Z,17.5
2017-08-08T00:51:04.866Z,17.5
2017-08-08T00:52:05.637Z,17.4
2017-08-08T00:53:06.471Z,17.5
2017-08-08T00:54:07.209Z,17.4
2017-08-08T00:55:08.018Z,17.6
2017-08-08T00:56:08.808Z,17.5
2017-08-08T00:57:09.592Z,17.5
2017-08-08T00:58:10.376Z,17.5
2017-08-08T00:59:11.114Z,17.5
2017-08-08T01:00:12.008Z,17.5
2017-08-08T01:01:12.923Z,17.4
2017-08-08T01:02:13.661Z,17.4
2017-08-08T01:03:14.431Z,17.4
2017-08-08T01:04:15.266Z,17.4
2017-08-08T01:05:15.979Z,17.5
2017-08-08T01:06:16.884Z,17.4
2017-08-08T01:07:17.647Z,17.4
2017-08-08T01:08:18.366Z,17.3
2017-08-08T01:09:19.179Z,17.3
2017-08-08T01:10:19.971Z,17.2
2017-08-08T01:11:20.725Z,17.3
2017-08-08T01:12:21.873Z,17.2
2017-08-08T01:13:22.594Z,17.2
2017-08-08T01:14:23.331Z,17.2
2017-08-08T01:15:24.343Z,17.2
2017-08-08T01:16:25.089Z,17.2
2017-08-08T01:17:25.888Z,17.1
2017-08-08T01:18:26.651Z,17.1
2017-08-08T01:19:27.358Z,17.1
2017-08-08T01:20:28.357Z,17.1
2017-08-08T01:21:29.187Z,17.1
2017-08-08T01:22:29.957Z,17.0
2017-08-08T01:23:30.684Z,17.0
2017-08-08T01:24:31.468Z,17.0
2017-08-08T01:25:32.242Z,17.0
2017-08-08T01:26:33.144Z,17.0
2017-08-08T01:27:33.944Z,16.9
2017-08-08T01:28:34.710Z,16.9
2017-08-08T01:29:35.691Z,16.9
2017-08-08T01:30:36.379Z,16.8
2017-08-08T01:31:37.221Z,16.8
2017-08-08T01:32:38.072Z,16.8
2017-08-08T01:33:38.766Z,16.7
2017-08-08T01:34:39.518Z,16.8
2017-08-08T01:35:40.261Z,16.8
2017-08-08T01:36:41.200Z,16.8
2017-08-08T01:37:42.299Z,16.8
2017-08-08T01:38:43.304Z,16.8
2017-08-08T01:39:44.057Z,16.7
2017-08-08T01:40:44.811Z,16.8
2017-08-08T01:41:45.644Z,17.0
2017-08-08T01:42:46.558Z,16.9
2017-08-08T01:43:47.333Z,16.8
2017-08-08T01:44:48.103Z,16.8
2017-08-08T01:45:49.140Z,16.7
2017-08-08T01:46:49.897Z,16.8
2017-08-08T01:47:50.658Z,16.7
2017-08-08T01:48:51.520Z,16.7
2017-08-08T01:49:52.277Z,16.7
2017-08-08T01:50:53.071Z,16.7
2017-08-08T01:51:53.883Z,16.8
2017-08-08T01:52:54.612Z,16.8
2017-08-08T01:53:55.384Z,16.8
2017-08-08T01:54:56.233Z,16.9
2017-08-08T01:55:56.980Z,16.8
2017-08-08T01:56:57.796Z,16.7
2017-08-08T01:57:58.637Z,16.7
2017-08-08T01:58:59.555Z,16.6
2017-08-08T02:00:00.393Z,16.5
2017-08-08T02:01:01.143Z,16.5
2017-08-08T02:02:01.925Z,16.5
2017-08-08T02:03:02.777Z,16.4
2017-08-08T02:04:03.581Z,16.3
2017-08-08T02:05:04.514Z,16.4
2017-08-08T02:06:05.649Z,16.4
2017-08-08T02:08:21.937Z,16.2
2017-08-08T02:09:22.722Z,16.2
2017-08-08T02:10:23.536Z,16.2
2017-08-08T02:11:24.359Z,16.2
2017-08-08T02:12:25.171Z,16.3
2017-08-08T02:13:26.052Z,16.3
2017-08-08T02:14:27.016Z,16.4
2017-08-08T02:15:28.010Z,16.3
2017-08-08T02:16:28.895Z,16.3
2017-08-08T02:17:29.742Z,16.3
2017-08-08T02:18:30.644Z,16.3
2017-08-08T02:19:31.369Z,16.2
2017-08-08T02:20:32.415Z,16.2
2017-08-08T02:21:33.287Z,16.2
2017-08-08T02:22:34.050Z,16.1
2017-08-08T02:23:35.055Z,16.1
2017-08-08T02:24:35.983Z,16.1
2017-08-08T02:25:36.779Z,16.0
2017-08-08T02:26:37.857Z,16.0
2017-08-08T02:27:38.612Z,16.0
2017-08-08T02:28:39.641Z,15.9
2017-08-08T02:29:40.512Z,15.8
2017-08-08T02:30:41.620Z,15.8
2017-08-08T02:31:42.427Z,15.8
2017-08-08T02:32:43.227Z,15.8
2017-08-08T02:33:43.992Z,15.7
2017-08-08T02:34:44.968Z,15.7
2017-08-08T02:35:45.995Z,15.6
2017-08-08T02:36:46.753Z,15.7
2017-08-08T02:37:47.632Z,15.7
2017-08-08T02:38:48.461Z,15.7
2017-08-08T02:39:55.453Z,15.7
2017-08-08T02:40:56.260Z,15.8
2017-08-08T02:41:57.031Z,15.8
2017-08-08T02:42:57.858Z,15.8
2017-08-08T02:43:58.647Z,15.8
2017-08-08T02:44:59.543Z,15.7
2017-08-08T02:46:00.309Z,15.6
2017-08-08T02:47:01.095Z,15.6
2017-08-08T02:48:01.880Z,15.7
2017-08-08T02:49:02.819Z,15.7
2017-08-08T02:50:03.622Z,15.6
2017-08-08T02:51:04.380Z,15.6
2017-08-08T02:52:05.161Z,15.7
2017-08-08T02:53:05.946Z,15.6
2017-08-08T02:54:06.758Z,15.7
2017-08-08T02:55:07.632Z,15.6
2017-08-08T02:56:08.450Z,15.7
2017-08-08T02:57:09.191Z,15.6
2017-08-08T02:58:10.127Z,15.6
2017-08-08T02:59:11.546Z,15.6
2017-08-08T03:00:12.395Z,15.5
2017-08-08T03:01:13.231Z,15.5
2017-08-08T03:02:14.040Z,15.5
2017-08-08T03:03:15.058Z,15.4
2017-08-08T03:04:15.851Z,15.4
2017-08-08T03:05:16.632Z,15.3
2017-08-08T03:06:17.385Z,15.3
2017-08-08T03:07:18.100Z,15.3
2017-08-08T03:08:18.942Z,15.2
2017-08-08T03:09:19.709Z,15.2
2017-08-08T03:10:20.440Z,15.2
2017-08-08T03:11:21.168Z,15.2
2017-08-08T03:12:21.918Z,15.2
2017-08-08T03:13:22.760Z,15.2
2017-08-08T03:14:23.575Z,15.2
2017-08-08T03:15:24.393Z,15.3
2017-08-08T03:16:25.291Z,15.2
2017-08-08T03:17:26.069Z,15.3
2017-08-08T03:18:27.072Z,15.2
2017-08-08T03:19:27.855Z,15.3
2017-08-08T03:20:28.813Z,15.3
2017-08-08T03:21:29.546Z,15.2
2017-08-08T03:22:30.396Z,15.2
2017-08-08T03:23:31.140Z,15.3
2017-08-08T03:24:31.879Z,15.3
2017-08-08T03:25:32.641Z,15.2
2017-08-08T03:26:33.356Z,15.2
2017-08-08T03:27:34.119Z,15.2
2017-08-08T03:28:34.847Z,15.3
2017-08-08T03:29:35.707Z,15.2
2017-08-08T03:30:36.861Z,15.3
2017-08-08T03:31:37.625Z,15.2
2017-08-08T03:32:38.361Z,15.2
2017-08-08T03:33:39.280Z,15.2
2017-08-08T03:34:40.006Z,15.1
2017-08-08T03:35:40.834Z,15.2
2017-08-08T03:36:42.593Z,15.2
2017-08-08T03:37:43.405Z,15.2
2017-08-08T03:38:44.176Z,15.2
2017-08-08T03:39:44.917Z,15.2
2017-08-08T03:40:45.831Z,15.2
2017-08-08T03:41:46.672Z,15.2
2017-08-08T03:42:47.510Z,15.1
2017-08-08T03:43:48.326Z,15.2
2017-08-08T03:44:49.069Z,15.2
2017-08-08T03:45:49.926Z,15.2
2017-08-08T03:46:50.677Z,15.1
2017-08-08T03:47:51.392Z,15.1
2017-08-08T03:48:52.201Z,15.0
2017-08-08T03:49:53.018Z,15.1
2017-08-08T03:50:53.906Z,15.1
2017-08-08T03:51:54.615Z,15.1
2017-08-08T03:52:55.497Z,15.1
2017-08-08T03:53:56.426Z,15.1
2017-08-08T03:54:57.170Z,15.0
2017-08-08T03:55:57.900Z,15.0
2017-08-08T03:56:58.800Z,14.9
2017-08-08T03:57:59.789Z,15.1
2017-08-08T03:59:00.548Z,15.1
2017-08-08T04:00:01.408Z,15.1
2017-08-08T04:01:02.347Z,15.1
2017-08-08T04:02:03.211Z,15.2
2017-08-08T04:03:03.992Z,15.1
2017-08-08T04:04:04.926Z,15.1
2017-08-08T04:05:05.968Z,15.1
2017-08-08T04:06:07.096Z,15.2
2017-08-08T04:07:08.176Z,15.2
2017-08-08T04:08:09.057Z,15.4
2017-08-08T04:09:10.015Z,15.5
2017-08-08T04:10:10.795Z,15.6
2017-08-08T04:11:11.538Z,15.6
2017-08-08T04:12:12.615Z,15.8
2017-08-08T04:13:13.366Z,15.8
2017-08-08T04:14:14.239Z,16.0
2017-08-08T04:15:15.375Z,16.1
2017-08-08T04:16:16.558Z,16.3
2017-08-08T04:17:17.406Z,16.3
2017-08-08T04:18:18.195Z,16.4
2017-08-08T04:19:19.228Z,16.4
2017-08-08T04:20:20.270Z,16.3
2017-08-08T04:21:21.095Z,16.3
2017-08-08T04:22:21.934Z,16.2
2017-08-08T04:23:22.937Z,16.3
2017-08-08T04:24:23.733Z,16.4
2017-08-08T04:25:24.614Z,16.3
2017-08-08T04:26:25.423Z,16.4
2017-08-08T04:27:26.643Z,16.4
2017-08-08T04:28:27.362Z,16.5
2017-08-08T04:29:28.124Z,16.9
2017-08-08T04:30:29.201Z,17.3
2017-08-08T04:31:30.079Z,17.6
2017-08-08T04:32:31.052Z,17.8
2017-08-08T04:33:31.770Z,17.8
2017-08-08T04:34:32.667Z,18.2
2017-08-08T04:35:33.487Z,18.3
2017-08-08T04:36:34.224Z,18.6
2017-08-08T04:37:35.073Z,18.8
2017-08-08T04:38:35.864Z,19.1
2017-08-08T04:39:36.594Z,19.1
2017-08-08T04:40:37.403Z,19.2
2017-08-08T04:41:38.105Z,19.3
2017-08-08T04:42:38.859Z,19.3
2017-08-08T04:43:39.673Z,19.3
2017-08-08T04:44:40.428Z,19.4
2017-08-08T04:45:41.310Z,19.6
2017-08-08T04:46:42.160Z,19.9
2017-08-08T04:47:42.959Z,20.0
2017-08-08T04:48:43.722Z,20.0
2017-08-08T04:49:44.599Z,20.1
2017-08-08T04:50:45.345Z,20.1
2017-08-08T04:51:46.249Z,20.3
2017-08-08T04:52:47.108Z,20.4
2017-08-08T04:53:47.936Z,20.4
2017-08-08T04:54:48.675Z,20.4
2017-08-08T04:55:49.706Z,20.2
2017-08-08T04:56:50.481Z,20.4
2017-08-08T04:57:51.256Z,20.4
2017-08-08T04:58:51.934Z,20.3
2017-08-08T04:59:52.695Z,20.2
2017-08-08T05:00:53.985Z,20.3
2017-08-08T05:01:55.041Z,20.3
2017-08-08T05:02:55.855Z,20.3
2017-08-08T05:03:56.600Z,20.0
2017-08-08T05:04:57.509Z,20.1
2017-08-08T05:05:58.270Z,20.0
2017-08-08T05:06:59.112Z,19.9
2017-08-08T05:07:59.889Z,19.8
2017-08-08T05:09:00.868Z,19.7
2017-08-08T05:10:01.750Z,19.7
2017-08-08T05:11:02.524Z,19.8
2017-08-08T05:12:03.396Z,19.8
2017-08-08T05:13:04.220Z,20.3
2017-08-08T05:14:05.205Z,20.3
2017-08-08T05:15:06.539Z,20.6
2017-08-08T05:16:08.324Z,20.5
2017-08-08T05:17:09.106Z,20.6
2017-08-08T05:18:09.876Z,20.8
2017-08-08T05:19:10.962Z,20.7
2017-08-08T05:20:11.885Z,20.9
2017-08-08T05:21:12.784Z,20.9
2017-08-08T05:22:13.609Z,21.1
2017-08-08T05:23:14.363Z,21.4
2017-08-08T05:24:15.150Z,21.8
2017-08-08T05:25:16.004Z,22.2
2017-08-08T05:26:17.153Z,22.4
2017-08-08T05:27:18.262Z,22.8
2017-08-08T05:28:19.007Z,22.7
2017-08-08T05:29:19.836Z,22.3
2017-08-08T05:30:20.772Z,22.2
2017-08-08T05:31:21.557Z,22.1
2017-08-08T05:32:23.858Z,22.2
2017-08-08T05:33:24.983Z,22.3
2017-08-08T05:34:25.815Z,22.5
2017-08-08T05:35:26.590Z,22.4
2017-08-08T05:36:27.611Z,22.3
2017-08-08T05:37:28.444Z,22.4
2017-08-08T05:38:29.419Z,22.4
2017-08-08T05:39:30.200Z,22.4
2017-08-08T05:40:31.002Z,22.4
2017-08-08T05:41:31.810Z,22.3
2017-08-08T05:42:32.788Z,22.3
2017-08-08T05:43:33.555Z,22.2
2017-08-08T05:44:34.369Z,22.2
2017-08-08T05:45:35.337Z,22.3
2017-08-08T05:46:36.158Z,22.6
2017-08-08T05:47:37.065Z,22.7
2017-08-08T05:48:37.927Z,22.9
2017-08-08T05:49:38.644Z,22.7
2017-08-08T05:50:39.581Z,22.4
2017-08-08T05:51:40.362Z,22.0
2017-08-08T05:52:41.185Z,22.0
2017-08-08T05:53:41.937Z,21.8
2017-08-08T05:54:42.708Z,21.9
2017-08-08T05:55:43.472Z,22.0
2017-08-08T05:56:44.200Z,22.1
2017-08-08T05:57:44.918Z,21.9
2017-08-08T05:58:45.676Z,21.9
2017-08-08T05:59:46.431Z,21.6
2017-08-08T06:00:47.803Z,21.6
2017-08-08T06:01:48.699Z,21.6
2017-08-08T06:02:49.505Z,21.6
2017-08-08T06:03:50.372Z,21.4
2017-08-08T06:04:51.120Z,21.4
2017-08-08T06:05:51.944Z,21.5
2017-08-08T06:07:55.280Z,21.7
2017-08-08T06:08:56.349Z,21.6
2017-08-08T06:09:57.199Z,21.6
2017-08-08T06:10:58.007Z,21.6
2017-08-08T06:11:58.874Z,21.7
2017-08-08T06:12:59.766Z,21.9
2017-08-08T06:14:00.492Z,21.9
2017-08-08T06:15:01.284Z,21.8
2017-08-08T06:16:02.128Z,21.8
2017-08-08T06:17:03.282Z,21.7
2017-08-08T06:18:04.074Z,21.5
2017-08-08T06:19:05.410Z,21.5
2017-08-08T06:20:06.367Z,21.5
2017-08-08T06:21:07.116Z,21.5
2017-08-08T06:22:07.957Z,21.5
2017-08-08T06:23:08.838Z,21.6
2017-08-08T06:24:09.672Z,21.7
2017-08-08T06:25:10.432Z,21.7
2017-08-08T06:26:11.341Z,21.8
2017-08-08T06:27:12.102Z,21.8
2017-08-08T06:28:12.832Z,21.9
2017-08-08T06:29:13.653Z,21.9
2017-08-08T06:30:14.635Z,22.0
2017-08-08T06:31:15.463Z,22.0
2017-08-08T06:32:16.335Z,22.3
2017-08-08T06:33:17.204Z,22.4
2017-08-08T06:34:18.134Z,22.4
2017-08-08T06:35:19.702Z,22.6
2017-08-08T06:36:20.557Z,22.8
2017-08-08T06:37:21.473Z,22.8
2017-08-08T06:38:22.287Z,22.8
2017-08-08T06:39:23.136Z,22.8
2017-08-08T06:40:24.176Z,22.8
2017-08-08T06:41:25.096Z,22.9
2017-08-08T06:42:26.268Z,22.9
2017-08-08T06:43:27.103Z,22.8
2017-08-08T06:44:27.878Z,22.7
2017-08-08T06:45:28.892Z,22.6
2017-08-08T06:46:29.728Z,22.5
2017-08-08T06:47:30.761Z,22.4
2017-08-08T06:48:31.538Z,22.3
2017-08-08T06:49:32.393Z,22.2
2017-08-08T06:50:33.203Z,22.2
2017-08-08T06:51:34.040Z,22.3
2017-08-08T06:52:35.062Z,22.3
2017-08-08T06:53:35.921Z,22.2
2017-08-08T06:54:36.750Z,22.3
2017-08-08T06:55:37.858Z,22.2
2017-08-08T06:56:38.555Z,22.2
2017-08-08T06:57:39.490Z,22.2
2017-08-08T06:58:40.233Z,22.1
2017-08-08T06:59:41.390Z,22.3
2017-08-08T07:00:42.902Z,22.3
2017-08-08T07:01:44.265Z,22.3
2017-08-08T07:02:45.381Z,22.3
2017-08-08T07:03:56.483Z,22.3
2017-08-08T07:04:57.259Z,22.2
2017-08-08T07:05:58.215Z,22.3
2017-08-08T07:06:59.352Z,22.4
2017-08-08T07:08:00.149Z,22.4
2017-08-08T07:09:00.876Z,22.4
2017-08-08T07:10:01.737Z,22.5
2017-08-08T07:11:02.552Z,22.4
2017-08-08T07:12:03.308Z,22.6
2017-08-08T07:13:04.144Z,22.7
2017-08-08T07:14:05.049Z,22.7
2017-08-08T07:15:05.891Z,22.8
2017-08-08T07:16:06.799Z,22.8
2017-08-08T07:17:07.633Z,22.9
2017-08-08T07:18:08.491Z,23.0
2017-08-08T07:19:09.295Z,22.8
2017-08-08T07:20:10.104Z,22.7
2017-08-08T07:21:11.203Z,22.6
2017-08-08T07:22:12.265Z,22.6
2017-08-08T07:23:13.049Z,22.8
2017-08-08T07:24:13.843Z,22.8
2017-08-08T07:25:14.617Z,22.7
2017-08-08T07:26:15.353Z,22.4
2017-08-08T07:27:16.566Z,22.4
2017-08-08T07:28:17.519Z,22.4
2017-08-08T07:29:18.285Z,22.5
2017-08-08T07:30:24.248Z,22.7
2017-08-08T07:31:25.078Z,22.4
2017-08-08T07:32:26.087Z,22.2
2017-08-08T07:33:27.119Z,22.2
2017-08-08T07:34:28.179Z,22.3
2017-08-08T07:35:29.168Z,22.2
2017-08-08T07:36:30.055Z,22.2
2017-08-08T07:37:30.882Z,22.4
2017-08-08T07:38:31.666Z,22.3
2017-08-08T07:39:32.656Z,22.4
2017-08-08T07:40:34.142Z,22.3
2017-08-08T07:41:34.931Z,22.4
2017-08-08T07:42:35.819Z,22.6
2017-08-08T07:43:36.662Z,22.5
2017-08-08T07:44:37.417Z,22.6
2017-08-08T07:45:38.532Z,22.8
2017-08-08T07:46:39.249Z,22.8
2017-08-08T07:47:40.000Z,22.9
2017-08-08T07:48:40.864Z,22.8
2017-08-08T07:49:41.698Z,22.6
2017-08-08T07:50:42.602Z,22.5
2017-08-08T07:51:43.621Z,22.7
2017-08-08T07:52:44.458Z,22.7
2017-08-08T07:53:45.212Z,22.7
2017-08-08T07:54:46.029Z,22.7
2017-08-08T07:55:46.820Z,22.9
2017-08-08T07:56:47.715Z,22.9
2017-08-08T07:57:48.594Z,23.1
2017-08-08T07:58:49.335Z,23.1
2017-08-08T07:59:50.158Z,23.2
2017-08-08T08:00:51.038Z,23.4
2017-08-08T08:01:51.942Z,23.3
2017-08-08T08:02:52.881Z,23.4
2017-08-08T08:03:53.733Z,23.6
2017-08-08T08:04:54.545Z,23.7
2017-08-08T08:05:55.361Z,23.5
2017-08-08T08:06:56.201Z,23.4
2017-08-08T08:07:57.411Z,23.4
2017-08-08T08:08:58.320Z,23.4
2017-08-08T08:09:59.091Z,23.5
2017-08-08T08:11:00.771Z,23.5
2017-08-08T08:12:02.177Z,23.6
2017-08-08T08:13:02.934Z,23.8
2017-08-08T08:14:03.716Z,23.8
2017-08-08T08:15:04.576Z,23.8
2017-08-08T08:16:05.771Z,23.6
2017-08-08T08:17:06.723Z,23.7
2017-08-08T08:18:07.531Z,23.7
2017-08-08T08:19:08.362Z,23.6
2017-08-08T08:20:09.172Z,23.7
2017-08-08T08:21:10.003Z,23.8
2017-08-08T08:22:10.838Z,24.0
2017-08-08T08:23:11.670Z,23.7
2017-08-08T08:24:12.715Z,23.6
2017-08-08T08:25:13.606Z,23.6
2017-08-08T08:26:14.468Z,23.4
2017-08-08T08:27:15.392Z,23.6
2017-08-08T08:28:16.251Z,23.6
2017-08-08T08:29:17.073Z,23.7
2017-08-08T08:30:17.873Z,23.7
2017-08-08T08:31:18.575Z,23.8
2017-08-08T08:32:19.483Z,23.7
2017-08-08T08:33:20.274Z,23.7
2017-08-08T08:34:21.069Z,23.6
2017-08-08T08:35:21.899Z,23.7
2017-08-08T08:36:22.895Z,23.7
2017-08-08T08:37:23.968Z,23.7
2017-08-08T08:38:24.720Z,23.7
2017-08-08T08:39:25.569Z,23.9
2017-08-08T08:40:26.467Z,24.1
2017-08-08T08:41:27.239Z,24.2
2017-08-08T08:42:28.292Z,24.3
2017-08-08T08:43:29.158Z,24.3
2017-08-08T08:44:29.902Z,24.2
2017-08-08T08:45:30.910Z,24.3
2017-08-08T08:46:31.908Z,24.4
2017-08-08T08:47:32.707Z,24.4
2017-08-08T08:48:33.632Z,24.5
2017-08-08T08:49:34.382Z,24.7
2017-08-08T08:50:35.207Z,24.7
2017-08-08T08:51:36.026Z,24.8
2017-08-08T08:52:36.876Z,24.9
2017-08-08T08:53:37.919Z,25.1
2017-08-08T08:54:38.858Z,25.3
2017-08-08T08:55:39.657Z,25.5
2017-08-08T08:56:40.410Z,25.5
2017-08-08T08:57:41.472Z,25.5
2017-08-08T08:58:42.255Z,25.6
2017-08-08T08:59:43.083Z,25.8
2017-08-08T09:00:44.141Z,25.7
2017-08-08T09:01:44.878Z,25.6
2017-08-08T09:02:45.684Z,25.5
2017-08-08T09:03:46.504Z,25.5
2017-08-08T09:04:47.320Z,25.3
2017-08-08T09:05:48.081Z,25.4
2017-08-08T09:06:48.806Z,25.6
2017-08-08T09:07:49.544Z,26.0
2017-08-08T09:08:50.395Z,26.7
2017-08-08T09:09:51.341Z,27.2
2017-08-08T09:10:52.317Z,27.3
2017-08-08T09:11:53.178Z,27.4
2017-08-08T09:12:53.969Z,26.9
2017-08-08T09:13:54.820Z,26.8
2017-08-08T09:14:55.836Z,27.1
2017-08-08T09:15:56.651Z,27.1
2017-08-08T09:16:57.676Z,27.3
2017-08-08T09:17:58.355Z,27.1
2017-08-08T09:18:59.148Z,27.1
2017-08-08T09:20:00.033Z,27.1
2017-08-08T09:21:00.768Z,26.9
2017-08-08T09:22:01.532Z,26.7
2017-08-08T09:23:02.321Z,27.0
2017-08-08T09:24:03.408Z,27.0
2017-08-08T09:25:04.752Z,27.0
2017-08-08T09:26:05.522Z,27.2
2017-08-08T09:27:06.332Z,27.2
2017-08-08T09:28:07.338Z,27.0
2017-08-08T09:29:08.416Z,26.9
2017-08-08T09:30:09.371Z,26.5
2017-08-08T09:31:10.366Z,26.6
2017-08-08T09:32:11.494Z,26.4
2017-08-08T09:33:12.280Z,26.3
2017-08-08T09:34:13.265Z,26.4
2017-08-08T09:35:14.101Z,26.2
2017-08-08T09:36:14.927Z,26.1
2017-08-08T09:37:15.730Z,26.3
2017-08-08T09:38:16.759Z,26.3
2017-08-08T09:39:17.569Z,26.1
2017-08-08T09:40:18.317Z,26.2
2017-08-08T09:41:19.390Z,26.3
2017-08-08T09:42:20.232Z,26.5
2017-08-08T09:43:20.984Z,26.7
2017-08-08T09:44:21.744Z,26.7
2017-08-08T09:45:22.958Z,26.9
2017-08-08T09:46:23.796Z,27.0
2017-08-08T09:47:24.635Z,26.8
2017-08-08T09:48:25.450Z,26.8
2017-08-08T09:49:26.270Z,26.8
2017-08-08T09:50:27.191Z,26.8
2017-08-08T09:51:27.966Z,26.8
2017-08-08T09:52:28.798Z,26.7
2017-08-08T09:53:29.621Z,26.8
2017-08-08T09:54:30.396Z,26.8
2017-08-08T09:55:31.279Z,26.9
2017-08-08T09:56:32.329Z,26.8
2017-08-08T09:57:33.232Z,26.7
2017-08-08T09:58:34.042Z,26.8
2017-08-08T09:59:34.823Z,27.0
2017-08-08T10:00:35.819Z,27.2
2017-08-08T10:01:36.663Z,27.2
2017-08-08T10:02:37.432Z,27.3
2017-08-08T10:03:38.263Z,27.4
2017-08-08T10:04:39.367Z,27.5
2017-08-08T10:05:40.312Z,27.3
2017-08-08T10:06:41.351Z,27.3
2017-08-08T10:07:42.204Z,27.4
2017-08-08T10:08:43.005Z,27.3
2017-08-08T10:09:43.940Z,27.3
2017-08-08T10:10:44.833Z,27.3
2017-08-08T10:11:45.708Z,27.2
2017-08-08T10:12:46.856Z,27.3
2017-08-08T10:13:47.786Z,27.3
2017-08-08T10:14:49.105Z,27.3
2017-08-08T10:15:50.573Z,27.4
2017-08-08T10:16:51.427Z,27.4
2017-08-08T10:17:52.284Z,27.4
2017-08-08T10:18:53.083Z,27.6
2017-08-08T10:19:53.957Z,27.7
2017-08-08T10:20:54.837Z,27.7
2017-08-08T10:21:55.828Z,27.8
2017-08-08T10:22:56.776Z,27.5
2017-08-08T10:23:57.781Z,27.5
2017-08-08T10:24:59.213Z,27.3
2017-08-08T10:26:00.311Z,27.5
2017-08-08T10:27:01.308Z,27.6
2017-08-08T10:28:02.230Z,27.5
2017-08-08T10:29:03.153Z,27.5
2017-08-08T10:30:04.124Z,27.5
2017-08-08T10:31:04.923Z,27.6
2017-08-08T10:32:18.522Z,27.8
2017-08-08T10:33:19.582Z,28.0
2017-08-08T10:34:20.454Z,28.0
2017-08-08T10:35:21.284Z,28.1
2017-08-08T10:36:22.076Z,28.1
2017-08-08T10:37:22.878Z,28.1
2017-08-08T10:38:23.990Z,28.1
2017-08-08T10:39:24.982Z,28.1
2017-08-08T10:40:26.220Z,28.0
2017-08-08T10:41:27.038Z,28.0
2017-08-08T10:42:27.925Z,27.8
2017-08-08T10:43:28.794Z,27.8
2017-08-08T10:44:29.968Z,27.8
2017-08-08T10:45:31.203Z,27.8
2017-08-08T10:46:32.182Z,27.7
2017-08-08T10:47:33.572Z,27.8
2017-08-08T10:48:34.488Z,27.8
2017-08-08T10:49:35.378Z,27.9
2017-08-08T10:50:36.902Z,28.2
2017-08-08T10:51:37.689Z,28.1
2017-08-08T10:52:38.600Z,28.0
2017-08-08T10:53:39.412Z,28.1
2017-08-08T10:54:40.631Z,28.2
2017-08-08T10:55:41.505Z,28.3
2017-08-08T10:56:42.827Z,28.5
2017-08-08T10:57:43.768Z,28.5
2017-08-08T10:58:44.660Z,28.5
2017-08-08T10:59:45.677Z,28.5
2017-08-08T11:00:47.326Z,28.6
2017-08-08T11:01:48.570Z,28.6
2017-08-08T11:02:49.992Z,28.7
2017-08-08T11:03:50.747Z,28.7
2017-08-08T11:04:52.171Z,28.5
2017-08-08T11:05:53.027Z,28.5
2017-08-08T11:06:53.811Z,28.5
2017-08-08T11:07:54.793Z,28.5
2017-08-08T11:08:56.858Z,28.5
2017-08-08T11:09:57.751Z,28.5
2017-08-08T11:10:58.946Z,28.5
2017-08-08T11:11:59.802Z,28.5
2017-08-08T11:13:00.962Z,28.5
2017-08-08T11:14:01.864Z,28.6
2017-08-08T11:15:02.832Z,28.6
2017-08-08T11:16:03.660Z,28.8
2017-08-08T11:17:04.880Z,28.8
2017-08-08T11:18:05.953Z,28.9
2017-08-08T11:19:06.703Z,28.7
2017-08-08T11:20:07.614Z,28.7
2017-08-08T11:21:08.871Z,28.7
2017-08-08T11:22:09.720Z,28.8
2017-08-08T11:23:10.525Z,28.9
2017-08-08T11:24:11.295Z,29.0
2017-08-08T11:25:12.412Z,29.2
2017-08-08T11:26:13.172Z,29.3
2017-08-08T11:27:14.377Z,29.3
2017-08-08T11:28:15.398Z,29.3
2017-08-08T11:29:16.526Z,29.1
2017-08-08T11:30:17.643Z,29.0
2017-08-08T11:31:25.427Z,29.0
2017-08-08T11:32:26.348Z,29.0
2017-08-08T11:33:27.254Z,29.2
2017-08-08T11:34:28.126Z,29.4
2017-08-08T11:35:29.123Z,29.6
2017-08-08T11:36:29.919Z,29.6
2017-08-08T11:37:30.754Z,29.6
2017-08-08T11:38:31.640Z,29.6
2017-08-08T11:39:32.495Z,29.8
2017-08-08T11:40:33.531Z,29.8
2017-08-08T11:41:34.355Z,29.8
2017-08-08T11:42:35.123Z,29.8
2017-08-08T11:43:36.055Z,29.8
2017-08-08T11:44:36.861Z,29.7
2017-08-08T11:45:37.730Z,29.7
2017-08-08T11:46:38.663Z,29.9
2017-08-08T11:47:39.623Z,29.9
2017-08-08T11:48:40.443Z,29.9
2017-08-08T11:49:41.279Z,29.8
2017-08-08T11:50:42.164Z,29.7
2017-08-08T11:51:42.969Z,29.6
2017-08-08T11:52:43.817Z,29.6
2017-08-08T11:53:44.580Z,29.6
2017-08-08T11:54:45.437Z,29.6
2017-08-08T11:55:46.369Z,29.5
2017-08-08T11:56:47.218Z,29.5
2017-08-08T11:57:48.051Z,29.5
2017-08-08T11:58:48.880Z,29.5
2017-08-08T11:59:49.986Z,29.6
2017-08-08T12:00:51.547Z,29.7
2017-08-08T12:01:52.526Z,29.8
2017-08-08T12:02:53.533Z,29.8
2017-08-08T12:03:54.359Z,29.8
2017-08-08T12:04:55.163Z,29.7
2017-08-08T12:05:56.036Z,29.7
2017-08-08T12:06:57.748Z,29.6
2017-08-08T12:07:58.568Z,29.4
2017-08-08T12:09:00.416Z,29.4
2017-08-08T12:10:01.237Z,29.4
2017-08-08T12:11:01.989Z,29.4
2017-08-08T12:12:02.830Z,29.4
2017-08-08T12:13:03.614Z,29.6
2017-08-08T12:14:04.452Z,29.6
2017-08-08T12:15:05.830Z,29.7
2017-08-08T12:16:06.960Z,29.7
2017-08-08T12:17:07.940Z,29.8
2017-08-08T12:18:08.714Z,29.9
2017-08-08T12:19:09.483Z,30.0
2017-08-08T12:20:10.212Z,30.2
2017-08-08T12:21:11.254Z,30.2
2017-08-08T12:22:12.248Z,30.4
2017-08-08T12:23:13.066Z,30.3
2017-08-08T12:24:13.949Z,30.4
2017-08-08T12:25:14.849Z,30.3
2017-08-08T12:26:15.887Z,30.5
2017-08-08T12:27:16.730Z,30.6
2017-08-08T12:28:17.490Z,30.7
2017-08-08T12:29:18.517Z,30.6
2017-08-08T12:30:19.654Z,30.7
2017-08-08T12:31:20.497Z,30.5
2017-08-08T12:32:21.293Z,30.3
2017-08-08T12:33:22.345Z,30.2
2017-08-08T12:34:23.954Z,30.1
2017-08-08T12:36:41.163Z,30.1
2017-08-08T12:37:42.338Z,30.2
2017-08-08T12:38:43.415Z,30.4
2017-08-08T12:39:44.639Z,30.4
2017-08-08T12:40:45.375Z,30.5
2017-08-08T12:41:46.191Z,30.6
2017-08-08T12:42:46.929Z,30.5
2017-08-08T12:43:47.749Z,30.5
2017-08-08T12:44:49.732Z,30.6
2017-08-08T12:45:51.077Z,30.6
2017-08-08T12:46:51.958Z,30.4
2017-08-08T12:47:52.731Z,30.4
2017-08-08T12:48:53.835Z,30.3
2017-08-08T12:49:54.810Z,30.2
2017-08-08T12:50:55.543Z,30.3
2017-08-08T12:51:56.365Z,30.4
2017-08-08T12:52:57.187Z,30.4
2017-08-08T12:53:58.293Z,30.5
2017-08-08T12:54:58.986Z,30.5
2017-08-08T12:55:59.775Z,30.5
2017-08-08T12:57:00.640Z,30.6
2017-08-08T12:58:01.371Z,30.8
2017-08-08T13:00:04.150Z,30.8
2017-08-08T13:01:04.977Z,30.8
2017-08-08T13:02:06.142Z,30.8
2017-08-08T13:03:06.982Z,30.6
2017-08-08T13:04:07.826Z,30.4
2017-08-08T13:05:08.649Z,30.2
2017-08-08T13:06:09.860Z,30.1
2017-08-08T13:07:10.687Z,29.8
2017-08-08T13:08:11.480Z,29.7
2017-08-08T13:09:12.350Z,29.8
2017-08-08T13:10:13.337Z,29.8
2017-08-08T13:11:14.100Z,29.9
2017-08-08T13:12:15.332Z,29.9
2017-08-08T13:13:16.157Z,30.0
2017-08-08T13:14:17.127Z,30.1
2017-08-08T13:15:17.978Z,30.2
2017-08-08T13:16:18.934Z,30.2
2017-08-08T13:18:35.856Z,30.4
2017-08-08T13:19:36.896Z,30.4
2017-08-08T13:20:37.877Z,30.4
2017-08-08T13:21:38.727Z,30.5
2017-08-08T13:22:39.669Z,30.4
2017-08-08T13:23:40.608Z,30.3
2017-08-08T13:24:41.329Z,30.3
2017-08-08T13:25:42.242Z,30.4
2017-08-08T13:26:42.990Z,30.4
2017-08-08T13:27:43.934Z,30.4
2017-08-08T13:28:44.813Z,30.4
2017-08-08T13:29:45.672Z,30.4
2017-08-08T13:30:46.981Z,30.3
2017-08-08T13:31:48.189Z,30.3
2017-08-08T13:32:49.539Z,30.2
2017-08-08T13:33:50.435Z,30.1
2017-08-08T13:34:51.236Z,30.2
2017-08-08T13:35:52.340Z,30.3
2017-08-08T13:36:53.514Z,30.3